Time;durP1;ratioP1;P1;durP2;ratioP2;P2;SDS_P1;SDS_P2;PMS_P1;PMS_P2;Temp;Humidity;BMP_temperature;BMP_pressure;BME280_temperature;BME280_humidity;BME280_pressure;Samples;Min_cycle;Max_cycle;Signal;HPM_P1;HPM_P2
2023/07/03 00:01:22;;;;;;;;;;;;;;;15.57;91.88;100932.38;5043867;28;19921;-66
2023/07/03 00:03:51;;;;;;;;;;;;;;;15.52;91.00;100929.28;5047606;28;20037;-66
2023/07/03 00:06:16;;;;;;;;;;;;;;;15.44;92.27;100932.72;5047603;28;19929;-66
2023/07/03 00:08:42;;;;;;;;;;;;;;;15.36;91.71;100919.91;5050734;28;20275;-66
2023/07/03 00:11:07;;;;;;;;;;;;;;;15.31;92.21;100924.94;5048662;28;20244;-66
2023/07/03 00:13:32;;;;;;;;;;;;;;;15.36;91.73;100921.78;5046611;28;19925;-66
2023/07/03 00:16:01;;;;;;;;;;;;;;;15.33;93.82;100920.25;5049750;28;20294;-66
2023/07/03 00:18:27;;;;;;;;;;;;;;;15.30;93.57;100926.78;5053794;28;20011;-67
2023/07/03 00:20:54;;;;;;;;;;;;;;;15.25;93.61;100920.97;5050540;28;20318;-65
2023/07/03 00:23:23;;;;;;;;;;;;;;;15.17;94.37;100928.13;5051667;28;20419;-66
2023/07/03 00:25:48;;;;;;;;;;;;;;;15.14;93.23;100919.31;5054823;28;20396;-66
2023/07/03 00:28:13;;;;;;;;;;;;;;;15.12;92.89;100918.59;5050711;28;19925;-66
2023/07/03 00:30:39;;;;;;;;;;;;;;;15.08;94.47;100917.22;5055889;28;20365;-66
2023/07/03 00:33:04;;;;;;;;;;;;;;;15.17;93.61;100922.72;5058045;28;20422;-65
2023/07/03 00:35:29;;;;;;;;;;;;;;;15.24;93.24;100915.72;5055630;28;20379;-65
2023/07/03 00:37:54;;;;;;;;;;;;;;;15.27;92.49;100918.97;5059105;28;19920;-66
2023/07/03 00:40:20;;;;;;;;;;;;;;;15.30;92.87;100925.94;5057673;28;19964;-66
2023/07/03 00:42:45;;;;;;;;;;;;;;;15.30;91.83;100920.53;5046759;28;20034;-66
2023/07/03 00:45:10;;;;;;;;;;;;;;;15.27;94.05;100912.72;5058161;28;20017;-66
2023/07/03 00:47:35;;;;;;;;;;;;;;;15.23;95.08;100914.84;5056996;28;19925;-66
2023/07/03 00:50:01;;;;;;;;;;;;;;;15.12;94.53;100921.28;5051188;28;19959;-66
2023/07/03 00:52:26;;;;;;;;;;;;;;;15.06;94.77;100918.34;5053297;28;19925;-66
2023/07/03 00:54:53;;;;;;;;;;;;;;;15.07;95.06;100920.91;5059049;28;19924;-66
2023/07/03 00:57:18;;;;;;;;;;;;;;;15.10;95.12;100920.59;5057217;28;19959;-66
2023/07/03 00:59:43;;;;;;;;;;;;;;;15.03;96.14;100919.50;5057999;28;20039;-66
2023/07/03 01:02:11;;;;;;;;;;;;;;;14.97;95.76;100925.47;5057325;28;19928;-66
2023/07/03 01:04:38;;;;;;;;;;;;;;;15.04;96.75;100917.63;5052707;28;20283;-67
2023/07/03 01:07:04;;;;;;;;;;;;;;;15.02;95.57;100922.31;5055660;28;19928;-66
2023/07/03 01:09:32;;;;;;;;;;;;;;;15.04;96.30;100921.19;5053783;28;19925;-66
2023/07/03 01:11:57;;;;;;;;;;;;;;;14.96;97.37;100924.63;5056141;28;19951;-67
2023/07/03 01:14:22;;;;;;;;;;;;;;;14.87;97.23;100916.53;5049836;28;19925;-66
2023/07/03 01:16:48;;;;;;;;;;;;;;;14.89;97.36;100914.53;5054717;28;20216;-66
2023/07/03 01:19:15;;;;;;;;;;;;;;;14.97;97.56;100917.38;5054415;28;19925;-67
2023/07/03 01:21:46;;;;;;;;;;;;;;;14.86;97.94;100913.00;5054928;28;20346;-66
2023/07/03 01:24:17;;;;;;;;;;;;;;;14.91;99.57;100917.94;5056338;28;20479;-66
2023/07/03 01:26:43;;;;;;;;;;;;;;;14.87;100.00;100917.41;5054901;28;19928;-66
2023/07/03 01:29:08;;;;;;;;;;;;;;;14.90;100.00;100911.69;5039387;28;19924;-68
2023/07/03 01:31:35;;;;;;;;;;;;;;;14.98;99.71;100919.06;5057169;28;20379;-66
2023/07/03 01:34:00;;;;;;;;;;;;;;;14.89;100.00;100918.09;5052489;28;20290;-67
2023/07/03 01:36:25;;;;;;;;;;;;;;;14.97;100.00;100910.09;5052968;28;19932;-67
2023/07/03 01:38:51;;;;;;;;;;;;;;;14.93;100.00;100916.81;5050512;28;20477;-67
2023/07/03 01:41:16;;;;;;;;;;;;;;;14.88;100.00;100912.81;5043336;28;20299;-67
2023/07/03 01:43:41;;;;;;;;;;;;;;;14.81;100.00;100909.88;5055413;28;20592;-66
2023/07/03 01:46:07;;;;;;;;;;;;;;;14.84;100.00;100913.13;5054175;28;19928;-67
2023/07/03 01:48:33;;;;;;;;;;;;;;;14.82;100.00;100914.28;5056667;28;20462;-67
2023/07/03 01:50:58;;;;;;;;;;;;;;;14.82;100.00;100909.75;5055881;28;20055;-69
2023/07/03 01:53:25;;;;;;;;;;;;;;;14.79;100.00;100915.44;5056158;28;19920;-68
2023/07/03 01:55:52;;;;;;;;;;;;;;;14.83;100.00;100906.00;5035443;28;19921;-66
2023/07/03 01:58:17;;;;;;;;;;;;;;;14.73;100.00;100902.50;5055585;28;20439;-67
2023/07/03 02:00:48;;;;;;;;;;;;;;;14.85;100.00;100901.31;5055080;28;20274;-66
2023/07/03 02:03:17;;;;;;;;;;;;;;;14.80;100.00;100910.84;5053253;28;19936;-66
2023/07/03 02:05:42;;;;;;;;;;;;;;;14.64;100.00;100911.44;5053421;28;19966;-67
2023/07/03 02:08:07;;;;;;;;;;;;;;;14.61;100.00;100912.56;5056053;28;19928;-67
2023/07/03 02:10:33;;;;;;;;;;;;;;;14.68;100.00;100910.16;5054871;28;19961;-66
2023/07/03 02:12:58;;;;;;;;;;;;;;;14.74;100.00;100906.91;5053208;28;20050;-66
2023/07/03 02:15:23;;;;;;;;;;;;;;;14.61;100.00;100900.91;5056018;28;19966;-66
2023/07/03 02:17:53;;;;;;;;;;;;;;;14.48;100.00;100906.59;5055599;28;19960;-67
2023/07/03 02:20:18;;;;;;;;;;;;;;;14.57;100.00;100905.75;5055530;28;19977;-67
2023/07/03 02:22:43;;;;;;;;;;;;;;;14.58;100.00;100895.78;5055280;28;20318;-70
2023/07/03 02:25:09;;;;;;;;;;;;;;;14.60;100.00;100899.19;5057057;28;19925;-67
2023/07/03 02:27:35;;;;;;;;;;;;;;;14.50;100.00;100905.47;5053971;28;19924;-67
2023/07/03 02:30:00;;;;;;;;;;;;;;;14.52;100.00;100892.69;5053380;28;20428;-66
2023/07/03 02:32:35;;;;;;;;;;;;;;;14.52;100.00;100886.41;5056648;28;20039;-67
2023/07/03 02:35:00;;;;;;;;;;;;;;;14.50;100.00;100897.38;5052457;28;19935;-66
2023/07/03 02:37:25;;;;;;;;;;;;;;;14.52;100.00;100881.00;5052138;28;19924;-66
2023/07/03 02:39:50;;;;;;;;;;;;;;;14.39;100.00;100881.31;5054665;28;19924;-67
2023/07/03 02:42:16;;;;;;;;;;;;;;;14.30;100.00;100887.59;5056366;28;20119;-72
2023/07/03 02:44:41;;;;;;;;;;;;;;;14.23;100.00;100880.06;5052603;28;19935;-67
2023/07/03 02:47:06;;;;;;;;;;;;;;;14.26;100.00;100876.19;5052958;28;19924;-66
2023/07/03 02:49:31;;;;;;;;;;;;;;;14.19;100.00;100878.63;5055316;28;19932;-67
2023/07/03 02:51:57;;;;;;;;;;;;;;;14.13;100.00;100862.16;5055381;28;19931;-66
2023/07/03 02:54:23;;;;;;;;;;;;;;;14.24;100.00;100876.34;5055212;28;19954;-68
2023/07/03 02:56:48;;;;;;;;;;;;;;;14.31;100.00;100878.47;5054168;28;19928;-67
2023/07/03 02:59:14;;;;;;;;;;;;;;;14.30;100.00;100877.63;5055750;28;19970;-68
2023/07/03 03:01:39;;;;;;;;;;;;;;;14.21;100.00;100875.78;5051473;28;19974;-67
2023/07/03 03:04:05;;;;;;;;;;;;;;;14.28;100.00;100876.91;5053021;28;20011;-67
2023/07/03 03:06:30;;;;;;;;;;;;;;;14.20;100.00;100874.06;5054805;28;19925;-67
2023/07/03 03:08:56;;;;;;;;;;;;;;;14.22;100.00;100880.19;5053085;28;19924;-67
2023/07/03 03:11:21;;;;;;;;;;;;;;;14.14;100.00;100871.97;5030318;28;20374;-67
2023/07/03 03:13:46;;;;;;;;;;;;;;;14.15;100.00;100869.09;5053648;28;20420;-66
2023/07/03 03:16:11;;;;;;;;;;;;;;;14.16;100.00;100876.22;5053483;28;20023;-67
2023/07/03 03:18:37;;;;;;;;;;;;;;;14.16;100.00;100869.97;5052643;28;20224;-67
2023/07/03 03:21:02;;;;;;;;;;;;;;;14.12;100.00;100866.69;5052668;28;19920;-67
2023/07/03 03:23:27;;;;;;;;;;;;;;;14.10;100.00;100869.53;5054913;28;19998;-67
2023/07/03 03:25:52;;;;;;;;;;;;;;;14.02;100.00;100873.94;5052548;28;19971;-66
2023/07/03 03:28:17;;;;;;;;;;;;;;;14.00;100.00;100873.22;5055048;28;20003;-66
2023/07/03 03:30:43;;;;;;;;;;;;;;;13.91;100.00;100874.91;5050699;28;19924;-67
2023/07/03 03:33:08;;;;;;;;;;;;;;;13.92;100.00;100877.47;5054249;28;19924;-67
2023/07/03 03:35:33;;;;;;;;;;;;;;;13.95;100.00;100874.50;5051488;28;19955;-66
2023/07/03 03:37:58;;;;;;;;;;;;;;;13.82;100.00;100871.22;5052851;28;19975;-66
2023/07/03 03:40:24;;;;;;;;;;;;;;;13.83;100.00;100880.16;5053645;28;20251;-66
2023/07/03 03:42:49;;;;;;;;;;;;;;;13.84;100.00;100887.28;5058112;28;20387;-68
2023/07/03 03:45:14;;;;;;;;;;;;;;;13.76;100.00;100885.28;5054499;28;20484;-67
2023/07/03 03:47:39;;;;;;;;;;;;;;;13.74;100.00;100881.88;5056528;28;19924;-67
2023/07/03 03:50:05;;;;;;;;;;;;;;;13.65;100.00;100887.09;5056612;28;19967;-67
2023/07/03 03:52:30;;;;;;;;;;;;;;;13.49;100.00;100879.53;5055708;28;20039;-67
2023/07/03 03:54:55;;;;;;;;;;;;;;;13.62;100.00;100873.88;5047417;28;19931;-66
2023/07/03 03:57:20;;;;;;;;;;;;;;;13.61;100.00;100884.81;5051833;28;19924;-66
2023/07/03 03:59:46;;;;;;;;;;;;;;;13.58;100.00;100882.41;5048100;28;20049;-67
2023/07/03 04:02:11;;;;;;;;;;;;;;;13.49;100.00;100886.78;5049572;28;20015;-67
2023/07/03 04:04:36;;;;;;;;;;;;;;;13.45;100.00;100883.50;5051424;28;19924;-67
2023/07/03 04:07:03;;;;;;;;;;;;;;;13.43;100.00;100885.47;5051897;28;20343;-67
2023/07/03 04:09:28;;;;;;;;;;;;;;;13.48;100.00;100890.47;5051626;28;19924;-67
2023/07/03 04:11:53;;;;;;;;;;;;;;;13.46;100.00;100892.44;5048922;28;20294;-66
2023/07/03 04:14:18;;;;;;;;;;;;;;;13.43;100.00;100896.25;5054734;28;19974;-67
2023/07/03 04:16:44;;;;;;;;;;;;;;;13.43;100.00;100885.47;5048651;28;20003;-67
2023/07/03 04:19:09;;;;;;;;;;;;;;;13.46;100.00;100895.97;5045740;28;19935;-67
2023/07/03 04:21:34;;;;;;;;;;;;;;;13.47;100.00;100894.16;5050956;28;19994;-67
2023/07/03 04:23:59;;;;;;;;;;;;;;;13.56;100.00;100893.31;5053250;28;19924;-67
2023/07/03 04:26:25;;;;;;;;;;;;;;;13.57;100.00;100895.00;5053992;28;19963;-67
2023/07/03 04:28:50;;;;;;;;;;;;;;;13.75;100.00;100888.97;5054312;28;20078;-67
2023/07/03 04:31:15;;;;;;;;;;;;;;;13.83;100.00;100889.09;5053614;28;19973;-67
2023/07/03 04:33:42;;;;;;;;;;;;;;;13.92;100.00;100892.81;5053918;28;19925;-67
2023/07/03 04:36:07;;;;;;;;;;;;;;;13.83;100.00;100893.66;5052981;28;19940;-67
2023/07/03 04:38:33;;;;;;;;;;;;;;;13.88;100.00;100891.41;5053415;28;19928;-67
2023/07/03 04:40:58;;;;;;;;;;;;;;;13.98;100.00;100891.41;5055762;28;20290;-66
2023/07/03 04:43:23;;;;;;;;;;;;;;;14.08;100.00;100889.56;5057451;28;19928;-67
2023/07/03 04:45:50;;;;;;;;;;;;;;;14.18;100.00;100893.13;5054613;28;20406;-67
2023/07/03 04:48:18;;;;;;;;;;;;;;;14.21;100.00;100911.75;5061357;28;20394;-67
2023/07/03 04:50:46;;;;;;;;;;;;;;;14.31;100.00;100906.34;5055706;28;19924;-67
2023/07/03 04:53:11;;;;;;;;;;;;;;;14.41;100.00;100906.34;5054933;28;19924;-67
2023/07/03 04:55:36;;;;;;;;;;;;;;;14.32;100.00;100910.75;5051529;28;20393;-67
2023/07/03 04:58:02;;;;;;;;;;;;;;;14.27;100.00;100910.31;5055527;28;19983;-66
2023/07/03 05:00:27;;;;;;;;;;;;;;;14.22;100.00;100912.59;5054128;28;19919;-70
2023/07/03 05:02:56;;;;;;;;;;;;;;;14.33;100.00;100911.59;5055481;28;19924;-67
2023/07/03 05:05:21;;;;;;;;;;;;;;;14.17;100.00;100922.97;5051443;28;20272;-68
2023/07/03 05:07:46;;;;;;;;;;;;;;;14.31;100.00;100913.56;5056790;28;19932;-68
2023/07/03 05:10:12;;;;;;;;;;;;;;;14.40;100.00;100918.13;5057574;28;20280;-67
2023/07/03 05:12:38;;;;;;;;;;;;;;;14.36;100.00;100927.50;5055542;28;19962;-66
2023/07/03 05:15:04;;;;;;;;;;;;;;;14.35;100.00;100928.50;5054382;28;19916;-67
2023/07/03 05:17:29;;;;;;;;;;;;;;;14.45;100.00;100929.38;5051750;28;19925;-67
2023/07/03 05:19:55;;;;;;;;;;;;;;;14.47;100.00;100932.78;5055455;28;19928;-67
2023/07/03 05:22:21;;;;;;;;;;;;;;;14.46;100.00;100931.06;5054865;28;19928;-67
2023/07/03 05:24:47;;;;;;;;;;;;;;;14.37;100.00;100943.59;5058063;28;20301;-66
2023/07/03 05:27:12;;;;;;;;;;;;;;;14.39;100.00;100943.44;5056084;28;20266;-66
2023/07/03 05:29:37;;;;;;;;;;;;;;;14.50;100.00;100939.72;5057219;28;19924;-67
2023/07/03 05:32:03;;;;;;;;;;;;;;;14.63;100.00;100944.84;5057493;28;19959;-68
2023/07/03 05:34:29;;;;;;;;;;;;;;;14.70;100.00;100929.81;5055650;28;19924;-68
2023/07/03 05:36:56;;;;;;;;;;;;;;;14.79;100.00;100934.34;5056230;28;19973;-66
2023/07/03 05:39:21;;;;;;;;;;;;;;;14.74;100.00;100942.03;5058031;28;20017;-67
2023/07/03 05:41:46;;;;;;;;;;;;;;;14.71;100.00;100950.44;5056395;28;20375;-67
2023/07/03 05:44:11;;;;;;;;;;;;;;;14.74;100.00;100950.13;5057001;28;20378;-66
2023/07/03 05:46:37;;;;;;;;;;;;;;;14.83;100.00;100953.81;5057326;28;20442;-67
2023/07/03 05:49:02;;;;;;;;;;;;;;;14.86;100.00;100953.53;5055388;28;19989;-67
2023/07/03 05:51:27;;;;;;;;;;;;;;;14.94;100.00;100952.81;5053701;28;19923;-66
2023/07/03 05:53:53;;;;;;;;;;;;;;;15.08;100.00;100948.78;5056697;28;19928;-66
2023/07/03 05:56:18;;;;;;;;;;;;;;;15.09;100.00;100950.50;5054732;28;19956;-66
2023/07/03 05:58:43;;;;;;;;;;;;;;;15.04;100.00;100947.38;5051832;28;19963;-67
2023/07/03 06:01:08;;;;;;;;;;;;;;;15.06;100.00;100950.78;5054333;28;20011;-69
2023/07/03 06:03:34;;;;;;;;;;;;;;;14.93;100.00;100943.00;5055850;28;20538;-66
2023/07/03 06:05:59;;;;;;;;;;;;;;;14.99;100.00;100947.81;5055811;28;20415;-67
2023/07/03 06:08:24;;;;;;;;;;;;;;;15.04;100.00;100942.84;5054235;28;19931;-65
2023/07/03 06:10:51;;;;;;;;;;;;;;;15.14;100.00;100949.03;5056533;28;20100;-65
2023/07/03 06:13:16;;;;;;;;;;;;;;;15.23;100.00;100960.00;5055846;28;19920;-66
2023/07/03 06:15:41;;;;;;;;;;;;;;;15.25;100.00;100952.59;5051206;28;19935;-67
2023/07/03 06:18:07;;;;;;;;;;;;;;;15.32;100.00;100960.94;5055154;28;19924;-66
2023/07/03 06:20:33;;;;;;;;;;;;;;;15.23;100.00;100960.00;5055014;28;20363;-67
2023/07/03 06:22:58;;;;;;;;;;;;;;;15.17;100.00;100960.56;5054528;28;19924;-68
2023/07/03 06:25:23;;;;;;;;;;;;;;;15.03;100.00;100964.59;5054699;28;19924;-67
2023/07/03 06:27:49;;;;;;;;;;;;;;;15.10;100.00;100966.56;5053378;28;19935;-67
2023/07/03 06:30:14;;;;;;;;;;;;;;;15.14;100.00;100964.44;5055516;28;19920;-67
2023/07/03 06:32:39;;;;;;;;;;;;;;;14.99;100.00;100964.88;5054740;28;20548;-67
2023/07/03 06:35:05;;;;;;;;;;;;;;;15.10;100.00;100963.84;5054666;28;19924;-66
2023/07/03 06:37:30;;;;;;;;;;;;;;;15.06;100.00;100956.19;5054352;28;19931;-67
2023/07/03 06:39:55;;;;;;;;;;;;;;;15.24;100.00;100961.69;5057926;28;19924;-67
2023/07/03 06:42:20;;;;;;;;;;;;;;;15.39;100.00;100962.06;5055088;28;19968;-67
2023/07/03 06:44:46;;;;;;;;;;;;;;;15.47;100.00;100961.31;5054690;28;20085;-68
2023/07/03 06:47:11;;;;;;;;;;;;;;;15.60;100.00;100959.97;5055262;28;20022;-68
2023/07/03 06:49:37;;;;;;;;;;;;;;;15.46;100.00;100952.38;5055307;28;20155;-69
2023/07/03 06:52:03;;;;;;;;;;;;;;;15.47;100.00;100950.50;5056393;28;20363;-67
2023/07/03 06:54:28;;;;;;;;;;;;;;;15.65;100.00;100956.81;5054982;28;19920;-67
2023/07/03 06:56:53;;;;;;;;;;;;;;;15.82;100.00;100944.34;5056421;28;20374;-66
2023/07/03 06:59:18;;;;;;;;;;;;;;;15.91;100.00;100960.72;5054309;28;20007;-66
2023/07/03 07:01:43;;;;;;;;;;;;;;;15.73;100.00;100950.69;5054990;28;20232;-67
2023/07/03 07:04:09;;;;;;;;;;;;;;;15.66;100.00;100955.81;5053900;28;19920;-67
2023/07/03 07:06:34;;;;;;;;;;;;;;;15.72;100.00;100949.81;5056213;28;19956;-66
2023/07/03 07:09:00;;;;;;;;;;;;;;;15.67;100.00;100957.53;5053041;28;19967;-67
2023/07/03 07:11:29;;;;;;;;;;;;;;;15.80;100.00;100951.75;5055760;28;19930;-67
2023/07/03 07:13:55;;;;;;;;;;;;;;;15.66;100.00;100963.94;5052427;28;20247;-67
2023/07/03 07:16:21;;;;;;;;;;;;;;;15.83;100.00;100969.56;5032242;28;19960;-67
2023/07/03 07:18:47;;;;;;;;;;;;;;;15.65;100.00;100974.94;5053645;28;20381;-67
2023/07/03 07:21:13;;;;;;;;;;;;;;;15.70;100.00;100978.03;5052451;28;19991;-67
2023/07/03 07:23:38;;;;;;;;;;;;;;;15.61;100.00;100968.97;5036210;28;20392;-66
2023/07/03 07:26:03;;;;;;;;;;;;;;;15.55;100.00;100983.09;5054309;28;19967;-66
2023/07/03 07:28:28;;;;;;;;;;;;;;;15.48;100.00;100980.13;5052842;28;20085;-66
2023/07/03 07:30:54;;;;;;;;;;;;;;;15.48;100.00;100973.84;5053972;28;19913;-67
2023/07/03 07:33:20;;;;;;;;;;;;;;;15.62;100.00;100969.81;5050458;28;20325;-66
2023/07/03 07:35:46;;;;;;;;;;;;;;;15.54;100.00;100992.22;5054313;28;19916;-67
2023/07/03 07:38:11;;;;;;;;;;;;;;;15.57;100.00;100984.63;5055124;28;19970;-66
2023/07/03 07:40:36;;;;;;;;;;;;;;;15.22;100.00;100991.59;5055877;28;20386;-66
2023/07/03 07:43:03;;;;;;;;;;;;;;;15.11;100.00;101005.28;5055921;28;19978;-66
2023/07/03 07:45:28;;;;;;;;;;;;;;;15.00;100.00;101004.44;5054202;28;19924;-66
2023/07/03 07:47:53;;;;;;;;;;;;;;;15.15;100.00;100990.47;5050883;28;19967;-67
2023/07/03 07:50:18;;;;;;;;;;;;;;;15.20;100.00;100998.16;5052289;28;19925;-66
2023/07/03 07:52:43;;;;;;;;;;;;;;;15.30;100.00;101007.94;5053517;28;19958;-66
2023/07/03 07:55:09;;;;;;;;;;;;;;;15.35;100.00;101002.09;5051785;28;19977;-67
2023/07/03 07:57:34;;;;;;;;;;;;;;;15.34;100.00;100999.53;5052629;28;20248;-67
2023/07/03 07:59:59;;;;;;;;;;;;;;;15.60;100.00;101008.69;5053180;28;19968;-66
2023/07/03 08:02:24;;;;;;;;;;;;;;;15.70;100.00;100999.69;5052746;28;19928;-67
2023/07/03 08:04:50;;;;;;;;;;;;;;;15.85;100.00;101003.59;5054705;28;19932;-70
2023/07/03 08:07:15;;;;;;;;;;;;;;;16.21;100.00;100992.00;5052953;28;19928;-67
2023/07/03 08:09:40;;;;;;;;;;;;;;;16.40;100.00;100993.75;5054507;28;19967;-66
2023/07/03 08:12:05;;;;;;;;;;;;;;;16.67;100.00;100999.25;5053733;28;20294;-67
2023/07/03 08:14:31;;;;;;;;;;;;;;;16.91;100.00;100993.16;5054035;28;19995;-66
2023/07/03 08:16:56;;;;;;;;;;;;;;;16.87;100.00;101002.63;5053547;28;20264;-67
2023/07/03 08:19:21;;;;;;;;;;;;;;;16.75;100.00;100993.88;5035747;28;19971;-67
2023/07/03 08:21:47;;;;;;;;;;;;;;;16.92;100.00;101003.00;5053744;28;20020;-67
2023/07/03 08:24:12;;;;;;;;;;;;;;;16.91;100.00;100994.03;5047916;28;19927;-67
2023/07/03 08:26:37;;;;;;;;;;;;;;;16.66;100.00;101009.22;5053464;28;19929;-67
2023/07/03 08:29:02;;;;;;;;;;;;;;;16.40;100.00;101009.16;5052134;28;19928;-67
2023/07/03 08:31:27;;;;;;;;;;;;;;;16.51;100.00;101016.22;5051560;28;20121;-67
2023/07/03 08:33:54;;;;;;;;;;;;;;;16.39;100.00;101019.13;5053829;28;19999;-66
2023/07/03 08:36:21;;;;;;;;;;;;;;;16.26;100.00;101015.97;5056300;28;21472;-66
2023/07/03 08:38:46;;;;;;;;;;;;;;;16.10;100.00;101014.75;5056584;28;20425;-67
2023/07/03 08:41:14;;;;;;;;;;;;;;;15.87;100.00;101014.31;5056719;28;19928;-67
2023/07/03 08:43:41;;;;;;;;;;;;;;;15.60;100.00;101022.22;5055564;28;20367;-66
2023/07/03 08:46:10;;;;;;;;;;;;;;;15.67;100.00;101022.47;5056032;28;19947;-67
2023/07/03 08:48:36;;;;;;;;;;;;;;;15.37;100.00;101018.19;5055217;28;19924;-67
2023/07/03 08:51:02;;;;;;;;;;;;;;;15.30;100.00;101021.47;5053962;28;19925;-66
2023/07/03 08:53:29;;;;;;;;;;;;;;;15.30;100.00;101026.88;5055384;28;19954;-66
2023/07/03 08:55:59;;;;;;;;;;;;;;;15.42;100.00;101032.97;5054216;28;20562;-66
2023/07/03 08:58:25;;;;;;;;;;;;;;;15.46;100.00;101022.72;5034179;28;20357;-66
2023/07/03 09:01:13;;;;;;;;;;;;;;;15.53;100.00;101020.28;5052337;28;19926;-66
2023/07/03 09:03:45;;;;;;;;;;;;;;;15.30;100.00;101036.84;5023300;28;20401;-66
2023/07/03 09:06:18;;;;;;;;;;;;;;;15.17;100.00;101042.56;5046847;28;19963;-67
2023/07/03 09:09:03;;;;;;;;;;;;;;;15.22;100.00;101040.28;5049071;28;20363;-67
2023/07/03 09:11:28;;;;;;;;;;;;;;;15.39;100.00;101035.13;5054623;28;19956;-66
2023/07/03 09:13:54;;;;;;;;;;;;;;;15.32;100.00;101042.97;5051848;28;20027;-66
2023/07/03 09:16:21;;;;;;;;;;;;;;;15.45;100.00;101037.25;5052093;28;19924;-67
2023/07/03 09:18:57;;;;;;;;;;;;;;;15.69;100.00;101036.72;5051404;28;19920;-66
2023/07/03 09:21:22;;;;;;;;;;;;;;;16.25;100.00;101033.22;5051847;28;20398;-67
2023/07/03 09:24:08;;;;;;;;;;;;;;;16.43;100.00;101020.53;5052605;28;19978;-67
2023/07/03 09:26:33;;;;;;;;;;;;;;;16.87;100.00;101019.75;5053787;28;20272;-66
2023/07/03 09:28:58;;;;;;;;;;;;;;;17.38;100.00;101019.97;5056004;28;20027;-67
2023/07/03 09:31:25;;;;;;;;;;;;;;;17.70;100.00;101020.34;5053281;28;19928;-67
2023/07/03 09:33:50;;;;;;;;;;;;;;;17.66;100.00;101014.38;5053684;28;19928;-67
2023/07/03 09:36:26;;;;;;;;;;;;;;;17.58;100.00;101010.75;5055210;28;19944;-67
2023/07/03 09:38:51;;;;;;;;;;;;;;;17.22;100.00;101018.00;5047947;28;19969;-68
2023/07/03 09:41:27;;;;;;;;;;;;;;;17.34;100.00;101013.19;5069643;28;19928;-68
2023/07/03 09:43:52;;;;;;;;;;;;;;;17.48;100.00;101016.31;5054791;28;20398;-68
2023/07/03 09:46:19;;;;;;;;;;;;;;;17.73;100.00;101016.44;5054817;28;19928;-69
2023/07/03 09:48:44;;;;;;;;;;;;;;;17.70;100.00;101020.34;5055437;28;19924;-67
2023/07/03 09:51:19;;;;;;;;;;;;;;;17.87;100.00;101015.84;5054516;28;19924;-67
2023/07/03 09:53:44;;;;;;;;;;;;;;;17.88;100.00;101020.22;5055143;28;19928;-67
2023/07/03 09:56:14;;;;;;;;;;;;;;;17.72;100.00;101021.03;5055174;28;19924;-68
2023/07/03 09:58:43;;;;;;;;;;;;;;;17.76;97.94;101032.41;5056637;28;19959;-67
2023/07/03 10:01:09;;;;;;;;;;;;;;;17.78;100.00;101020.34;5052519;28;19920;-68
2023/07/03 10:03:35;;;;;;;;;;;;;;;17.93;100.00;101023.31;5050886;28;20457;-70
2023/07/03 10:06:07;;;;;;;;;;;;;;;17.96;91.73;101028.41;5054737;28;19925;-70
2023/07/03 10:08:33;;;;;;;;;;;;;;;17.98;95.77;101034.56;5054409;28;19924;-70
2023/07/03 10:10:58;;;;;;;;;;;;;;;17.90;99.79;101022.78;5052045;28;19924;-68
2023/07/03 10:13:28;;;;;;;;;;;;;;;17.73;96.71;101030.00;5055081;28;20334;-68
2023/07/03 10:15:55;;;;;;;;;;;;;;;17.60;100.00;101042.19;5052520;28;19935;-68
2023/07/03 10:18:24;;;;;;;;;;;;;;;17.57;100.00;101042.50;5055336;28;19928;-69
2023/07/03 10:20:50;;;;;;;;;;;;;;;17.33;96.52;101048.59;5055505;28;19925;-68
2023/07/03 10:23:44;;;;;;;;;;;;;;;17.04;99.04;101041.59;5053131;28;19928;-69
2023/07/03 10:26:20;;;;;;;;;;;;;;;17.09;100.00;101042.00;5041212;28;20693;-67
2023/07/03 10:28:48;;;;;;;;;;;;;;;17.44;100.00;101047.50;5055863;28;19951;-69
2023/07/03 10:31:16;;;;;;;;;;;;;;;17.87;94.82;101050.28;5053131;28;19924;-68
2023/07/03 10:33:45;;;;;;;;;;;;;;;18.26;99.42;101050.63;5053081;28;19916;-67
2023/07/03 10:36:12;;;;;;;;;;;;;;;18.40;88.04;101019.25;5051938;28;19970;-67
2023/07/03 10:38:46;;;;;;;;;;;;;;;18.17;92.54;101043.47;5054549;28;20151;-67
2023/07/03 10:41:16;;;;;;;;;;;;;;;18.93;86.67;101051.59;5052328;28;20258;-67
2023/07/03 10:43:55;;;;;;;;;;;;;;;19.30;85.08;101044.81;5050674;28;20233;-67
2023/07/03 10:46:25;;;;;;;;;;;;;;;19.05;85.47;101034.97;5050948;28;20585;-67
2023/07/03 10:48:50;;;;;;;;;;;;;;;19.34;85.91;101043.41;5050431;28;19924;-69
2023/07/03 10:51:18;;;;;;;;;;;;;;;19.66;73.40;101037.22;5050431;28;20342;-70
2023/07/03 10:53:47;;;;;;;;;;;;;;;19.90;73.85;101034.44;5051810;28;19935;-70
2023/07/03 10:56:17;;;;;;;;;;;;;;;20.19;74.38;101024.78;5051936;28;19925;-70
2023/07/03 10:58:44;;;;;;;;;;;;;;;20.05;71.15;101029.09;5051270;28;20333;-69
2023/07/03 11:01:21;;;;;;;;;;;;;;;20.17;70.07;101028.72;5049459;28;20043;-67
2023/07/03 11:03:46;;;;;;;;;;;;;;;20.41;68.08;101022.25;5048013;28;19924;-67
2023/07/03 11:06:16;;;;;;;;;;;;;;;20.61;69.14;101019.91;5054477;28;19946;-67
2023/07/03 11:08:47;;;;;;;;;;;;;;;20.31;62.36;101018.94;5052429;28;19924;-67
2023/07/03 11:11:12;;;;;;;;;;;;;;;20.04;69.31;101026.56;5052118;28;19969;-67
2023/07/03 11:13:49;;;;;;;;;;;;;;;19.76;65.07;101022.38;5050702;28;19932;-69
2023/07/03 11:16:15;;;;;;;;;;;;;;;19.11;67.43;101023.38;5049575;28;19942;-67
2023/07/03 11:18:49;;;;;;;;;;;;;;;18.94;72.24;101025.22;5052357;28;20445;-68
2023/07/03 11:21:14;;;;;;;;;;;;;;;18.79;74.61;101025.91;5053348;28;19952;-67
2023/07/03 11:23:44;;;;;;;;;;;;;;;18.67;74.38;101030.00;5051386;28;20015;-68
2023/07/03 11:26:12;;;;;;;;;;;;;;;18.96;73.99;101036.81;5051078;28;20019;-67
2023/07/03 11:28:43;;;;;;;;;;;;;;;19.49;73.73;101035.41;5047915;28;20062;-68
2023/07/03 11:31:09;;;;;;;;;;;;;;;20.35;71.38;101020.28;5046392;28;19924;-68
2023/07/03 11:33:34;;;;;;;;;;;;;;;21.32;65.00;101018.81;5048191;28;20035;-74
2023/07/03 11:36:00;;;;;;;;;;;;;;;22.28;57.52;101015.28;5048423;28;19993;-68
2023/07/03 11:38:26;;;;;;;;;;;;;;;21.15;53.12;101022.75;5047301;28;19981;-68
2023/07/03 11:40:55;;;;;;;;;;;;;;;20.86;55.38;101022.47;5052462;28;19925;-67
2023/07/03 11:43:21;;;;;;;;;;;;;;;20.24;56.21;101027.00;5053172;28;19924;-67
2023/07/03 11:45:50;;;;;;;;;;;;;;;20.33;54.41;101027.78;5054460;28;19967;-66
2023/07/03 11:48:39;;;;;;;;;;;;;;;20.33;57.62;101019.59;5053509;28;19928;-67
2023/07/03 11:51:08;;;;;;;;;;;;;;;20.45;56.22;101020.88;5042787;28;20393;-67
2023/07/03 11:53:39;;;;;;;;;;;;;;;21.33;55.05;101017.78;5054003;28;19971;-67
2023/07/03 11:56:05;;;;;;;;;;;;;;;21.67;54.31;101026.50;5054325;28;19925;-67
2023/07/03 11:58:32;;;;;;;;;;;;;;;21.25;50.34;101017.88;5053552;28;19925;-68
2023/07/03 12:01:16;;;;;;;;;;;;;;;21.28;52.62;101014.78;5051326;28;19959;-67
2023/07/03 12:03:55;;;;;;;;;;;;;;;20.76;55.83;101025.47;5054084;28;19935;-68
2023/07/03 12:06:38;;;;;;;;;;;;;;;20.76;54.48;101035.50;5032506;28;20416;-68
2023/07/03 12:09:19;;;;;;;;;;;;;;;20.60;52.69;101042.78;5058674;28;19970;-69
2023/07/03 12:11:56;;;;;;;;;;;;;;;21.51;52.92;101031.09;5058597;28;20537;-66
2023/07/03 12:14:39;;;;;;;;;;;;;;;21.61;51.96;101035.41;5056311;28;19925;-69
2023/07/03 12:17:20;;;;;;;;;;;;;;;21.69;49.58;101038.97;5057397;28;19978;-67
2023/07/03 12:19:46;;;;;;;;;;;;;;;21.20;51.97;101036.69;5054444;28;19950;-67
2023/07/03 12:22:11;;;;;;;;;;;;;;;20.97;49.78;101037.56;5057687;28;19978;-67
2023/07/03 12:24:37;;;;;;;;;;;;;;;21.36;50.95;101044.72;5056564;28;19924;-67
2023/07/03 12:27:03;;;;;;;;;;;;;;;22.73;49.46;101047.16;5056267;28;20432;-68
2023/07/03 12:29:30;;;;;;;;;;;;;;;22.86;47.90;101033.59;5055471;28;20424;-67